AAY1233 KOKC-KDEN
Flight info
| Callsign | AAY1233 |
|---|---|
| Flight time | N/A |
| Altitude | 38000 |
| Route | STPHN3 ZEEWE KK36A HALEN NIIXX4 |
| Aircraft | A319/M-SDE3FGHIRWY/LB1 |
Departure
| Time | 2026-04-30 01:11 |
|---|---|
| Airport | OKC Will Rogers World Airport (KOKC) |
Arrival
| Time | N/A |
|---|---|
| Airport | Denver International Airport (KDEN) |
| Time | Latitude | Longitude | Altitude | Speed | Heading |
|---|---|---|---|---|---|
| 2026-04-30 00:44 | 35.39482 | -97.59801 | 1297 ft | 0 kts | 360° |
| 2026-04-30 00:59 | 35.39469 | -97.59801 | 1291 ft | 4 kts | 4° |
| 2026-04-30 00:59 | 35.39442 | -97.59806 | 1295 ft | 4 kts | 19° |
| 2026-04-30 00:59 | 35.39421 | -97.59821 | 1293 ft | 4 kts | 61° |
| 2026-04-30 00:59 | 35.39417 | -97.59837 | 1293 ft | 1 kts | 89° |
| 2026-04-30 01:00 | 35.39416 | -97.59840 | 1293 ft | 0 kts | 89° |
| 2026-04-30 01:01 | 35.39417 | -97.59835 | 1292 ft | 1 kts | 89° |
| 2026-04-30 01:01 | 35.39417 | -97.59830 | 1293 ft | 2 kts | 88° |
| 2026-04-30 01:02 | 35.39412 | -97.59757 | 1292 ft | 12 kts | 102° |
| 2026-04-30 01:02 | 35.39386 | -97.59648 | 1292 ft | 14 kts | 96° |
| 2026-04-30 01:02 | 35.39383 | -97.59527 | 1292 ft | 15 kts | 91° |
| 2026-04-30 01:02 | 35.39384 | -97.59400 | 1292 ft | 15 kts | 90° |
| 2026-04-30 01:03 | 35.39385 | -97.59266 | 1292 ft | 16 kts | 81° |
| 2026-04-30 01:03 | 35.39462 | -97.59200 | 1292 ft | 14 kts | 43° |
| 2026-04-30 01:03 | 35.39483 | -97.59087 | 1293 ft | 13 kts | 56° |
| 2026-04-30 01:03 | 35.39573 | -97.59064 | 1292 ft | 14 kts | 359° |
| 2026-04-30 01:04 | 35.39675 | -97.59062 | 1293 ft | 15 kts | 2° |
| 2026-04-30 01:04 | 35.39780 | -97.59063 | 1293 ft | 16 kts | 0° |
| 2026-04-30 01:04 | 35.39904 | -97.59062 | 1293 ft | 20 kts | 0° |
| 2026-04-30 01:04 | 35.40056 | -97.59063 | 1293 ft | 24 kts | 359° |
| 2026-04-30 01:05 | 35.40218 | -97.59063 | 1293 ft | 23 kts | 359° |
| 2026-04-30 01:05 | 35.40362 | -97.59063 | 1292 ft | 12 kts | 0° |
| 2026-04-30 01:05 | 35.40449 | -97.59064 | 1292 ft | 13 kts | 360° |
| 2026-04-30 01:05 | 35.40503 | -97.59010 | 1293 ft | 0 kts | 88° |
| 2026-04-30 01:06 | 35.40503 | -97.59006 | 1293 ft | 2 kts | 88° |
| 2026-04-30 01:07 | 35.40504 | -97.58949 | 1293 ft | 9 kts | 88° |
| 2026-04-30 01:07 | 35.40475 | -97.58898 | 1293 ft | 9 kts | 173° |
| 2026-04-30 01:07 | 35.40425 | -97.58895 | 1294 ft | 0 kts | 179° |
| 2026-04-30 01:10 | 35.40413 | -97.58895 | 1294 ft | 17 kts | 179° |
| 2026-04-30 01:10 | 35.40007 | -97.58895 | 1293 ft | 98 kts | 179° |
| 2026-04-30 01:10 | 35.39082 | -97.58894 | 1294 ft | 161 kts | 180° |
| 2026-04-30 01:11 | 35.37953 | -97.58949 | 1877 ft | 160 kts | 182° |
| 2026-04-30 01:11 | 35.36834 | -97.59137 | 2543 ft | 163 kts | 184° |
| 2026-04-30 01:11 | 35.35713 | -97.59309 | 3130 ft | 166 kts | 181° |
| 2026-04-30 01:11 | 35.34560 | -97.59766 | 3505 ft | 191 kts | 219° |
| 2026-04-30 01:12 | 35.33898 | -97.61277 | 3805 ft | 215 kts | 267° |
| 2026-04-30 01:12 | 35.34264 | -97.63070 | 4088 ft | 235 kts | 302° |
| 2026-04-30 01:12 | 35.35133 | -97.64879 | 4601 ft | 259 kts | 304° |
| 2026-04-30 01:12 | 35.36097 | -97.66847 | 5251 ft | 277 kts | 303° |
| 2026-04-30 01:13 | 35.37103 | -97.68888 | 6168 ft | 283 kts | 303° |
| 2026-04-30 01:13 | 35.38103 | -97.70984 | 7159 ft | 285 kts | 297° |
| 2026-04-30 01:13 | 35.38830 | -97.73236 | 8269 ft | 283 kts | 288° |
| 2026-04-30 01:13 | 35.39355 | -97.75533 | 9460 ft | 278 kts | 284° |
| 2026-04-30 01:14 | 35.39805 | -97.77843 | 10417 ft | 283 kts | 283° |
| 2026-04-30 01:14 | 35.40267 | -97.80279 | 10852 ft | 303 kts | 283° |
| 2026-04-30 01:14 | 35.40762 | -97.82812 | 11615 ft | 309 kts | 283° |
| 2026-04-30 01:14 | 35.41286 | -97.85376 | 12540 ft | 309 kts | 283° |
| 2026-04-30 01:15 | 35.41823 | -97.87928 | 13502 ft | 309 kts | 283° |
| 2026-04-30 01:15 | 35.42372 | -97.90485 | 14356 ft | 310 kts | 283° |
| 2026-04-30 01:15 | 35.42928 | -97.93052 | 15150 ft | 312 kts | 283° |
| 2026-04-30 01:15 | 35.43489 | -97.95625 | 15920 ft | 313 kts | 283° |
| 2026-04-30 01:16 | 35.44053 | -97.98212 | 16686 ft | 315 kts | 283° |
| 2026-04-30 01:16 | 35.44621 | -98.00819 | 17443 ft | 318 kts | 283° |
| 2026-04-30 01:16 | 35.45191 | -98.03445 | 18189 ft | 320 kts | 283° |